createdAt,value
2017-11-22T00:00:58.108Z,4.13
2017-11-22T00:03:27.580Z,1.10
2017-11-22T00:05:56.261Z,1.20
2017-11-22T00:08:27.815Z,1.57
2017-11-22T00:10:56.543Z,1.33
2017-11-22T00:13:24.884Z,1.30
2017-11-22T00:15:53.196Z,0.90
2017-11-22T00:18:21.525Z,2.57
2017-11-22T00:20:49.825Z,1.13
2017-11-22T00:23:18.189Z,1.10
2017-11-22T00:25:46.537Z,0.97
2017-11-22T00:28:14.810Z,1.43
2017-11-22T00:30:43.144Z,1.00
2017-11-22T00:33:11.392Z,1.17
2017-11-22T00:35:39.687Z,0.90
2017-11-22T00:38:07.961Z,1.63
2017-11-22T00:40:36.262Z,1.00
2017-11-22T00:43:04.537Z,1.37
2017-11-22T00:45:33.008Z,1.23
2017-11-22T00:48:01.286Z,0.90
2017-11-22T00:50:30.012Z,1.00
2017-11-22T00:52:58.442Z,1.10
2017-11-22T00:55:26.736Z,2.40
2017-11-22T00:57:55.187Z,1.43
2017-11-22T01:00:23.481Z,1.20
2017-11-22T01:02:51.957Z,1.00
2017-11-22T01:05:20.278Z,0.90
2017-11-22T01:07:48.588Z,1.10
2017-11-22T01:10:16.889Z,1.20
2017-11-22T01:12:45.261Z,1.10
2017-11-22T01:15:13.544Z,1.30
2017-11-22T01:17:41.892Z,1.07
2017-11-22T01:20:10.181Z,1.03
2017-11-22T01:22:38.557Z,0.87
2017-11-22T01:25:07.077Z,1.10
2017-11-22T01:27:35.369Z,1.07
2017-11-22T01:30:03.844Z,1.30
2017-11-22T01:32:32.144Z,1.07
2017-11-22T01:35:00.434Z,1.40
2017-11-22T01:37:28.771Z,1.23
2017-11-22T01:39:57.061Z,1.60
2017-11-22T01:42:25.372Z,1.30
2017-11-22T01:44:53.641Z,1.17
2017-11-22T01:47:21.972Z,2.50
2017-11-22T01:49:50.456Z,1.20
2017-11-22T01:52:18.816Z,1.10
2017-11-22T01:54:47.125Z,1.03
2017-11-22T01:57:15.472Z,1.20
2017-11-22T01:59:43.928Z,1.73
2017-11-22T02:02:12.240Z,1.27
2017-11-22T02:04:40.504Z,1.20
2017-11-22T02:07:08.848Z,1.30
2017-11-22T02:09:37.151Z,1.03
2017-11-22T02:12:05.468Z,1.20
2017-11-22T02:14:33.875Z,1.63
2017-11-22T02:17:02.313Z,2.60
2017-11-22T02:19:30.723Z,1.30
2017-11-22T02:21:59.015Z,1.27
2017-11-22T02:24:27.308Z,1.37
2017-11-22T02:26:55.632Z,1.20
2017-11-22T02:29:24.007Z,1.07
2017-11-22T02:31:52.378Z,1.00
2017-11-22T02:34:20.653Z,1.10
2017-11-22T02:36:49.129Z,1.20
2017-11-22T02:39:17.454Z,1.53
2017-11-22T02:41:45.885Z,1.40
2017-11-22T02:44:14.201Z,1.20
2017-11-22T02:46:42.502Z,1.00
2017-11-22T02:49:10.764Z,1.20
2017-11-22T02:51:39.207Z,1.20
2017-11-22T02:54:07.503Z,1.20
2017-11-22T02:56:35.881Z,1.87
2017-11-22T02:59:04.188Z,1.20
2017-11-22T03:01:32.490Z,1.43
2017-11-22T03:04:00.792Z,1.20
2017-11-22T03:06:29.094Z,1.23
2017-11-22T03:08:57.403Z,0.90
2017-11-22T03:11:25.762Z,1.27
2017-11-22T03:13:54.088Z,1.20
2017-11-22T03:16:22.408Z,1.20
2017-11-22T03:18:50.673Z,3.63
2017-11-22T03:21:18.971Z,1.30
2017-11-22T03:23:47.269Z,1.40
2017-11-22T03:26:15.573Z,1.00
2017-11-22T03:28:43.900Z,1.30
2017-11-22T03:31:12.222Z,1.07
2017-11-22T03:33:40.505Z,2.30
2017-11-22T03:36:08.839Z,1.43
2017-11-22T03:38:37.116Z,1.43
2017-11-22T03:41:05.427Z,1.10
2017-11-22T03:43:33.716Z,0.90
2017-11-22T03:46:02.041Z,0.80
2017-11-22T03:48:30.468Z,1.23
2017-11-22T03:51:04.113Z,1.20
2017-11-22T03:53:37.730Z,1.13
2017-11-22T03:56:06.149Z,1.00
2017-11-22T03:58:34.463Z,1.03
2017-11-22T04:01:02.787Z,1.10
2017-11-22T04:03:31.165Z,1.37
2017-11-22T04:06:07.170Z,1.13
2017-11-22T04:08:35.516Z,1.00
2017-11-22T04:11:03.997Z,1.23
2017-11-22T04:13:32.282Z,1.30
2017-11-22T04:16:00.756Z,1.10
2017-11-22T04:18:29.042Z,1.20
2017-11-22T04:20:57.517Z,1.10
2017-11-22T04:23:25.949Z,1.63
2017-11-22T04:25:54.249Z,1.30
2017-11-22T04:28:22.548Z,1.17
2017-11-22T04:30:51.027Z,1.40
2017-11-22T04:33:19.325Z,2.00
2017-11-22T04:35:47.790Z,1.50
2017-11-22T04:38:16.061Z,1.30
2017-11-22T04:40:44.405Z,1.30
2017-11-22T04:43:12.701Z,1.50
2017-11-22T04:45:41.004Z,1.30
2017-11-22T04:48:09.335Z,1.60
2017-11-22T04:50:37.640Z,1.57
2017-11-22T04:53:05.936Z,1.50
2017-11-22T04:55:34.232Z,1.80
2017-11-22T04:58:02.566Z,1.60
2017-11-22T05:00:30.889Z,1.80
2017-11-22T05:02:59.229Z,1.70
2017-11-22T05:05:27.708Z,1.50
2017-11-22T05:07:56.007Z,2.60
2017-11-22T05:10:24.465Z,1.53
2017-11-22T05:12:52.760Z,3.10
2017-11-22T05:15:21.090Z,1.83
2017-11-22T05:17:49.376Z,1.40
2017-11-22T05:20:17.680Z,1.73
2017-11-22T05:22:46.001Z,3.03
2017-11-22T05:25:14.306Z,1.70
2017-11-22T05:27:42.630Z,1.90
2017-11-22T05:30:10.936Z,2.10
2017-11-22T05:32:39.252Z,1.60
2017-11-22T05:35:07.573Z,2.07
2017-11-22T05:37:35.876Z,2.40
2017-11-22T05:40:03.893Z,1.93
2017-11-22T05:42:32.241Z,1.80
2017-11-22T05:45:00.640Z,2.00
2017-11-22T05:47:29.021Z,2.70
2017-11-22T05:49:57.304Z,2.03
2017-11-22T05:52:25.646Z,2.07
2017-11-22T05:54:53.938Z,1.97
2017-11-22T05:57:22.342Z,1.87
2017-11-22T05:59:50.625Z,1.70
2017-11-22T06:02:18.979Z,3.20
2017-11-22T06:04:47.277Z,3.30
2017-11-22T06:07:15.749Z,2.03
2017-11-22T06:09:44.045Z,2.70
2017-11-22T06:12:12.488Z,2.60
2017-11-22T06:14:41.647Z,5.00
2017-11-22T06:17:10.108Z,6.17
2017-11-22T06:19:38.446Z,3.93
2017-11-22T06:22:06.934Z,5.73
2017-11-22T06:24:35.213Z,3.57
2017-11-22T06:27:03.776Z,5.63
2017-11-22T06:29:32.133Z,5.97
2017-11-22T06:32:00.648Z,4.63
2017-11-22T06:34:29.340Z,3.73
2017-11-22T06:36:57.840Z,6.00
2017-11-22T06:39:26.320Z,7.33
2017-11-22T06:41:54.721Z,4.67
2017-11-22T06:44:23.160Z,5.60
2017-11-22T06:46:51.533Z,8.00
2017-11-22T06:49:19.821Z,10.33
2017-11-22T06:51:52.932Z,13.10
2017-11-22T06:54:21.561Z,13.70
2017-11-22T06:56:49.885Z,13.60
2017-11-22T06:59:18.429Z,16.40
2017-11-22T07:01:52.185Z,18.50
2017-11-22T07:04:20.497Z,20.50
2017-11-22T07:06:48.801Z,19.73
2017-11-22T07:09:17.263Z,16.73
2017-11-22T07:11:46.337Z,18.20
2017-11-22T07:14:15.238Z,22.60
2017-11-22T07:16:49.192Z,22.67
2017-11-22T07:19:17.765Z,17.03
2017-11-22T07:21:46.117Z,19.27
2017-11-22T07:24:14.409Z,14.43
2017-11-22T07:26:42.792Z,15.93
2017-11-22T07:29:11.257Z,15.00
2017-11-22T07:31:39.553Z,11.77
2017-11-22T07:34:07.884Z,13.03
2017-11-22T07:36:41.632Z,13.17
2017-11-22T07:39:10.241Z,10.50
2017-11-22T07:41:38.682Z,14.27
2017-11-22T07:44:06.974Z,9.30
2017-11-22T07:46:35.453Z,13.50
2017-11-22T07:49:03.882Z,7.37
2017-11-22T07:51:37.538Z,9.60
2017-11-22T07:54:06.061Z,9.70
2017-11-22T07:56:34.813Z,10.67
2017-11-22T07:59:06.425Z,12.10
2017-11-22T08:01:34.890Z,7.03
2017-11-22T08:04:08.689Z,12.23
2017-11-22T08:06:37.077Z,10.33
2017-11-22T08:09:06.105Z,9.70
2017-11-22T08:11:34.501Z,8.33
2017-11-22T08:14:02.966Z,6.37
2017-11-22T08:16:31.899Z,8.27
2017-11-22T08:19:00.238Z,6.27
2017-11-22T08:21:28.654Z,5.60
2017-11-22T08:23:56.967Z,6.50
2017-11-22T08:26:25.405Z,10.10
2017-11-22T08:28:53.689Z,8.60
2017-11-22T08:31:21.981Z,6.73
2017-11-22T08:33:50.617Z,5.87
2017-11-22T08:36:18.935Z,3.40
2017-11-22T08:38:47.333Z,7.23
2017-11-22T08:41:15.894Z,6.23
2017-11-22T08:43:44.161Z,5.40
2017-11-22T08:46:12.456Z,5.73
2017-11-22T08:48:40.724Z,7.33
2017-11-22T08:51:09.835Z,6.07
2017-11-22T08:53:38.160Z,12.60
2017-11-22T08:56:11.745Z,9.67
2017-11-22T08:58:40.054Z,5.97
2017-11-22T09:01:08.344Z,5.53
2017-11-22T09:03:41.960Z,6.77
2017-11-22T09:06:15.821Z,6.97
2017-11-22T09:08:44.325Z,6.57
2017-11-22T09:11:12.698Z,4.47
2017-11-22T09:13:41.016Z,7.80
2017-11-22T09:16:09.297Z,8.50
2017-11-22T09:18:42.869Z,4.10
2017-11-22T09:21:11.596Z,4.60
2017-11-22T09:23:39.900Z,10.83
2017-11-22T09:26:08.456Z,10.30
2017-11-22T09:28:36.792Z,7.13
2017-11-22T09:31:10.501Z,4.30
2017-11-22T09:33:38.840Z,7.47
2017-11-22T09:36:07.160Z,8.70
2017-11-22T09:38:35.636Z,11.40
2017-11-22T09:41:04.227Z,4.97
2017-11-22T09:43:32.725Z,8.93
2017-11-22T09:46:01.151Z,6.63
2017-11-22T09:48:29.581Z,3.50
2017-11-22T09:50:57.901Z,5.20
2017-11-22T09:53:26.233Z,4.93
2017-11-22T09:55:54.545Z,4.83
2017-11-22T09:58:22.811Z,5.40
2017-11-22T10:00:51.108Z,7.30
2017-11-22T10:03:19.565Z,7.33
2017-11-22T10:05:48.113Z,3.53
2017-11-22T10:08:16.897Z,5.73
2017-11-22T10:10:45.229Z,6.80
2017-11-22T10:13:13.646Z,4.80
2017-11-22T10:15:42.197Z,6.73
2017-11-22T10:18:10.829Z,4.17
2017-11-22T10:20:43.312Z,3.90
2017-11-22T10:23:15.877Z,5.37
2017-11-22T10:25:44.896Z,7.20
2017-11-22T10:28:13.206Z,8.33
2017-11-22T10:30:42.548Z,10.23
2017-11-22T10:33:14.739Z,6.90
2017-11-22T10:35:43.182Z,8.53
2017-11-22T10:38:11.556Z,7.53
2017-11-22T10:40:39.887Z,6.83
2017-11-22T10:43:08.165Z,6.87
2017-11-22T10:45:36.497Z,4.93
2017-11-22T10:48:05.136Z,5.77
2017-11-22T10:50:33.489Z,5.87
2017-11-22T10:53:01.891Z,4.43
2017-11-22T10:55:30.206Z,7.80
2017-11-22T10:57:58.560Z,2.30
2017-11-22T11:00:27.228Z,4.73
2017-11-22T11:02:55.541Z,9.73
2017-11-22T11:05:23.849Z,11.40
2017-11-22T11:07:52.113Z,7.47
2017-11-22T11:10:20.396Z,5.10
2017-11-22T11:12:48.683Z,6.40
2017-11-22T11:15:17.009Z,7.87
2017-11-22T11:17:45.458Z,7.53
2017-11-22T11:20:13.764Z,15.23
2017-11-22T11:22:42.069Z,9.23
2017-11-22T11:25:10.518Z,28.50
2017-11-22T11:27:38.812Z,8.10
2017-11-22T11:30:07.190Z,11.57
2017-11-22T11:32:35.517Z,10.10
2017-11-22T11:35:04.475Z,11.33
2017-11-22T11:37:33.589Z,14.33
2017-11-22T11:40:01.873Z,11.03
2017-11-22T11:42:30.257Z,11.00
2017-11-22T11:45:05.480Z,13.77
2017-11-22T11:47:33.988Z,12.60
2017-11-22T11:50:02.357Z,13.00
2017-11-22T11:52:30.700Z,10.93
2017-11-22T11:54:58.932Z,19.87
2017-11-22T11:57:27.448Z,11.00
2017-11-22T11:59:55.748Z,13.30
2017-11-22T12:02:24.284Z,11.80
2017-11-22T12:04:52.590Z,7.97
2017-11-22T12:07:21.399Z,8.07
2017-11-22T12:09:49.758Z,13.83
2017-11-22T12:12:19.118Z,6.87
2017-11-22T12:14:47.609Z,6.23
2017-11-22T12:17:16.791Z,11.53
2017-11-22T12:19:45.204Z,6.40
